createdAt,value
2022-10-02T00:01:34.649Z,12.73
2022-10-02T00:04:03.536Z,8.68
2022-10-02T00:06:43.461Z,12.27
2022-10-02T00:09:19.954Z,7.63
2022-10-02T00:11:53.594Z,9.13
2022-10-02T00:14:24.989Z,8.20
2022-10-02T00:16:57.473Z,14.02
2022-10-02T00:19:26.512Z,4.00
2022-10-02T00:22:13.050Z,5.10
2022-10-02T00:24:48.014Z,9.57
2022-10-02T00:27:34.351Z,12.50
2022-10-02T00:30:03.814Z,11.85
2022-10-02T00:32:38.759Z,7.28
2022-10-02T00:35:42.464Z,6.70
2022-10-02T00:38:22.705Z,7.18
2022-10-02T00:41:12.293Z,7.07
2022-10-02T00:43:52.791Z,6.88
2022-10-02T00:46:37.693Z,12.05
2022-10-02T00:49:26.187Z,6.63
2022-10-02T00:52:02.936Z,6.22
2022-10-02T00:54:54.578Z,7.35
2022-10-02T00:57:36.709Z,6.28
2022-10-02T01:00:10.527Z,8.05
2022-10-02T01:02:56.085Z,8.55
2022-10-02T01:05:27.252Z,4.07
2022-10-02T01:07:56.754Z,5.47
2022-10-02T01:10:26.544Z,6.97
2022-10-02T01:12:55.971Z,11.70
2022-10-02T01:15:28.818Z,8.85
2022-10-02T01:17:57.326Z,3.92
2022-10-02T01:20:32.857Z,7.68
2022-10-02T01:23:21.045Z,7.45
2022-10-02T01:25:50.266Z,10.85
2022-10-02T01:28:18.552Z,8.93
2022-10-02T01:30:50.949Z,6.80
2022-10-02T01:33:19.497Z,5.95
2022-10-02T01:35:48.536Z,10.63
2022-10-02T01:38:20.144Z,4.68
2022-10-02T01:40:47.924Z,7.07
2022-10-02T01:43:19.789Z,9.20
2022-10-02T01:45:57.895Z,3.83
2022-10-02T01:48:42.883Z,7.03
2022-10-02T01:51:40.602Z,5.05
2022-10-02T01:54:18.819Z,9.30
2022-10-02T01:56:55.465Z,9.95
2022-10-02T01:59:36.685Z,6.63
2022-10-02T02:02:15.188Z,8.35
2022-10-02T02:04:51.262Z,9.25
2022-10-02T02:07:25.988Z,7.13
2022-10-02T02:10:00.220Z,7.03
2022-10-02T02:12:36.741Z,7.43
2022-10-02T02:15:12.426Z,5.60
2022-10-02T02:17:49.234Z,10.43
2022-10-02T02:20:21.566Z,6.10
2022-10-02T02:22:52.693Z,6.28
2022-10-02T02:25:23.287Z,6.97
2022-10-02T02:27:54.096Z,7.15
2022-10-02T02:30:25.205Z,7.88
2022-10-02T02:32:55.808Z,8.15
2022-10-02T02:35:28.474Z,5.25
2022-10-02T02:37:59.450Z,8.02
2022-10-02T02:40:31.368Z,3.60
2022-10-02T02:43:03.996Z,5.53
2022-10-02T02:45:37.248Z,5.35
2022-10-02T02:48:09.878Z,5.30
2022-10-02T02:50:43.315Z,7.72
2022-10-02T02:53:14.934Z,7.07
2022-10-02T02:55:46.462Z,5.30
2022-10-02T02:58:17.533Z,4.78
2022-10-02T03:00:46.748Z,5.05
2022-10-02T03:03:14.521Z,2.72
2022-10-02T03:05:45.917Z,2.85
2022-10-02T03:08:23.672Z,4.65
2022-10-02T03:11:06.152Z,5.15
2022-10-02T03:13:46.263Z,3.15
2022-10-02T03:16:26.814Z,5.07
2022-10-02T03:19:09.001Z,8.80
2022-10-02T03:21:42.038Z,5.60
2022-10-02T03:24:16.857Z,7.35
2022-10-02T03:26:51.054Z,4.72
2022-10-02T03:29:26.248Z,2.50
2022-10-02T03:31:56.539Z,3.65
2022-10-02T03:34:25.271Z,7.35
2022-10-02T03:36:53.430Z,7.32
2022-10-02T03:39:26.164Z,5.72
2022-10-02T03:41:54.944Z,5.35
2022-10-02T03:44:22.813Z,3.22
2022-10-02T03:46:50.648Z,6.40
2022-10-02T03:49:19.779Z,4.22
2022-10-02T03:51:47.598Z,3.90
2022-10-02T03:54:18.595Z,7.65
2022-10-02T03:56:55.268Z,8.27
2022-10-02T03:59:37.930Z,5.68
2022-10-02T04:02:10.089Z,2.53
2022-10-02T04:04:46.318Z,5.70
2022-10-02T04:07:18.603Z,8.35
2022-10-02T04:09:52.882Z,8.32
2022-10-02T04:12:25.163Z,6.68
2022-10-02T04:14:57.116Z,6.40
2022-10-02T04:17:29.797Z,4.47
2022-10-02T04:20:04.540Z,4.20
2022-10-02T04:22:37.717Z,6.10
2022-10-02T04:25:11.559Z,5.32
2022-10-02T04:27:42.713Z,7.53
2022-10-02T04:30:14.808Z,12.18
2022-10-02T04:32:42.998Z,5.30
2022-10-02T04:35:17.227Z,5.18
2022-10-02T04:38:07.051Z,7.38
2022-10-02T04:40:56.154Z,4.40
2022-10-02T04:43:47.974Z,4.95
2022-10-02T04:46:33.429Z,7.72
2022-10-02T04:49:25.689Z,5.68
2022-10-02T04:52:10.278Z,4.75
2022-10-02T04:55:19.365Z,4.45
2022-10-02T04:58:00.254Z,4.25
2022-10-02T05:00:33.361Z,5.97
2022-10-02T05:03:16.207Z,3.97
2022-10-02T05:06:00.578Z,7.72
2022-10-02T05:08:43.292Z,3.92
2022-10-02T05:11:21.934Z,5.80
2022-10-02T05:14:13.878Z,8.43
2022-10-02T05:16:57.556Z,6.10
2022-10-02T05:19:44.617Z,5.13
2022-10-02T05:22:37.699Z,5.15
2022-10-02T05:25:22.913Z,5.32
2022-10-02T05:28:04.699Z,7.03
2022-10-02T05:30:42.211Z,4.53
2022-10-02T05:33:32.181Z,3.22
2022-10-02T05:36:15.082Z,4.57
2022-10-02T05:39:08.130Z,5.18
2022-10-02T05:41:50.010Z,7.50
2022-10-02T05:44:21.209Z,6.65
2022-10-02T05:46:53.600Z,4.32
2022-10-02T05:49:26.395Z,4.80
2022-10-02T05:51:59.736Z,4.95
2022-10-02T05:54:40.870Z,5.93
2022-10-02T05:57:17.635Z,5.22
2022-10-02T05:59:57.072Z,3.90
2022-10-02T06:02:38.824Z,4.38
2022-10-02T06:05:15.819Z,6.03
2022-10-02T06:07:47.177Z,2.58
2022-10-02T06:10:20.223Z,3.25
2022-10-02T06:12:55.208Z,5.05
2022-10-02T06:15:30.068Z,5.40
2022-10-02T06:18:02.538Z,4.72
2022-10-02T06:20:35.676Z,2.85
2022-10-02T06:23:11.010Z,3.35
2022-10-02T06:25:44.159Z,5.85
2022-10-02T06:28:18.230Z,4.38
2022-10-02T06:30:50.395Z,2.20
2022-10-02T06:33:22.019Z,5.00
2022-10-02T06:36:05.058Z,2.72
2022-10-02T06:38:46.064Z,8.80
2022-10-02T06:41:24.085Z,4.15
2022-10-02T06:44:12.727Z,3.10
2022-10-02T06:46:51.477Z,4.20
2022-10-02T06:49:31.907Z,4.53
2022-10-02T06:52:07.913Z,4.18
2022-10-02T06:54:49.547Z,3.55
2022-10-02T06:57:29.086Z,5.72
2022-10-02T07:00:09.326Z,8.65
2022-10-02T07:03:19.871Z,11.93
2022-10-02T07:06:10.802Z,4.38
2022-10-02T07:08:51.978Z,5.57
2022-10-02T07:11:28.059Z,8.45
2022-10-02T07:14:17.410Z,8.20
2022-10-02T07:17:22.939Z,6.75
2022-10-02T07:20:21.320Z,6.05
2022-10-02T07:23:06.805Z,5.47
2022-10-02T07:25:45.070Z,6.82
2022-10-02T07:28:21.049Z,7.45
2022-10-02T07:30:58.903Z,8.02
2022-10-02T07:33:45.245Z,3.22
2022-10-02T07:36:16.961Z,5.05
2022-10-02T07:39:02.183Z,7.20
2022-10-02T07:42:02.037Z,6.78
2022-10-02T07:44:51.942Z,2.42
2022-10-02T07:47:34.748Z,6.50
2022-10-02T07:50:12.489Z,5.60
2022-10-02T07:52:47.887Z,7.55
2022-10-02T07:55:18.215Z,3.47
2022-10-02T07:57:55.067Z,4.80
2022-10-02T08:00:25.694Z,4.63
2022-10-02T08:02:59.636Z,4.57
2022-10-02T08:05:31.908Z,7.40
2022-10-02T08:08:04.360Z,3.72
2022-10-02T08:10:36.630Z,8.00
2022-10-02T08:13:11.982Z,2.60
2022-10-02T08:15:42.694Z,7.82
2022-10-02T08:18:33.708Z,6.35
2022-10-02T08:21:04.909Z,4.30
2022-10-02T08:23:38.660Z,3.22
2022-10-02T08:26:10.460Z,7.80
2022-10-02T08:28:43.861Z,5.90
2022-10-02T08:31:12.742Z,6.88
2022-10-02T08:33:41.168Z,6.35
2022-10-02T08:36:41.578Z,6.32
2022-10-02T08:39:18.851Z,9.10
2022-10-02T08:42:32.274Z,9.15
2022-10-02T08:45:26.926Z,8.68
2022-10-02T08:48:31.600Z,7.55
2022-10-02T08:51:40.196Z,6.43
2022-10-02T08:54:54.402Z,5.88
2022-10-02T08:57:38.488Z,3.75
2022-10-02T09:00:20.820Z,9.60
2022-10-02T09:03:25.787Z,8.35
2022-10-02T09:06:31.362Z,6.85
2022-10-02T09:09:27.880Z,4.38
2022-10-02T09:12:35.279Z,5.65
2022-10-02T09:15:15.821Z,6.18
2022-10-02T09:17:49.939Z,6.70
2022-10-02T09:20:44.688Z,9.85
2022-10-02T09:24:00.552Z,7.47
2022-10-02T09:26:43.098Z,7.78
2022-10-02T09:29:42.311Z,4.50
2022-10-02T09:32:43.267Z,6.97
2022-10-02T09:35:37.138Z,8.48
2022-10-02T09:38:30.455Z,5.47
2022-10-02T09:41:24.575Z,7.97
2022-10-02T09:44:39.460Z,7.13
2022-10-02T09:47:26.967Z,14.02
2022-10-02T09:50:34.804Z,8.98
2022-10-02T09:53:37.316Z,4.80
2022-10-02T09:56:27.173Z,8.38
2022-10-02T09:59:27.134Z,8.60
2022-10-02T10:02:25.462Z,6.50
2022-10-02T10:05:27.999Z,6.85
2022-10-02T10:08:22.228Z,8.55
2022-10-02T10:11:29.170Z,8.23
2022-10-02T10:14:33.773Z,10.75
2022-10-02T10:17:30.528Z,10.93
2022-10-02T10:20:15.494Z,9.18
2022-10-02T10:23:09.021Z,10.20
2022-10-02T10:25:51.336Z,6.88
2022-10-02T10:28:46.471Z,8.50
2022-10-02T10:31:49.191Z,8.45
2022-10-02T10:34:45.991Z,8.30
2022-10-02T10:37:49.269Z,10.07
2022-10-02T10:40:32.370Z,12.88
2022-10-02T10:43:33.290Z,6.38
2022-10-02T10:46:15.484Z,7.38
2022-10-02T10:49:06.905Z,11.02
2022-10-02T10:51:45.649Z,6.07
2022-10-02T10:54:52.793Z,8.38
2022-10-02T10:57:31.870Z,6.90
2022-10-02T11:00:07.180Z,9.10
2022-10-02T11:02:54.584Z,7.05
2022-10-02T11:05:48.137Z,6.57
2022-10-02T11:08:33.743Z,8.82
2022-10-02T11:11:09.401Z,9.82
2022-10-02T11:13:54.414Z,9.50
2022-10-02T11:16:47.170Z,9.98
2022-10-02T11:19:39.551Z,7.95
2022-10-02T11:22:23.286Z,10.45
2022-10-02T11:25:00.734Z,16.92
2022-10-02T11:27:43.214Z,14.27
2022-10-02T11:30:22.227Z,8.35
2022-10-02T11:33:24.218Z,9.77
2022-10-02T11:36:08.749Z,9.88
2022-10-02T11:38:49.967Z,15.98
2022-10-02T11:41:43.693Z,8.65
2022-10-02T11:44:20.842Z,13.02
2022-10-02T11:47:32.620Z,13.20
2022-10-02T11:50:24.541Z,10.85
2022-10-02T11:53:11.275Z,10.45
2022-10-02T11:55:52.570Z,12.30
2022-10-02T11:58:37.207Z,8.75
2022-10-02T12:01:26.287Z,8.07
2022-10-02T12:04:11.309Z,6.82
2022-10-02T12:07:00.341Z,9.00
2022-10-02T12:09:41.964Z,8.48
2022-10-02T12:12:27.725Z,6.50
2022-10-02T12:15:07.174Z,11.40
2022-10-02T12:17:53.164Z,10.52
2022-10-02T12:20:48.250Z,12.18
2022-10-02T12:23:50.021Z,5.78
2022-10-02T12:26:48.860Z,7.22
2022-10-02T12:29:27.329Z,9.25
2022-10-02T12:32:07.820Z,11.27
2022-10-02T12:34:48.377Z,12.50
2022-10-02T12:37:24.013Z,15.38
2022-10-02T12:40:00.157Z,10.70
2022-10-02T12:42:53.583Z,8.48
2022-10-02T12:45:51.706Z,14.23
2022-10-02T12:48:33.731Z,8.52
2022-10-02T12:51:41.142Z,5.63
2022-10-02T12:54:27.859Z,8.35
2022-10-02T12:57:39.247Z,6.30
2022-10-02T13:00:15.354Z,5.00
2022-10-02T13:03:19.549Z,6.68
2022-10-02T13:06:25.055Z,8.90
2022-10-02T13:09:12.513Z,11.32
2022-10-02T13:11:56.017Z,11.38
2022-10-02T13:14:41.813Z,10.02
2022-10-02T13:17:20.345Z,13.70
2022-10-02T13:20:00.108Z,9.65
2022-10-02T13:22:37.824Z,10.70
2022-10-02T13:25:34.422Z,11.85
2022-10-02T13:28:23.014Z,12.57
2022-10-02T13:31:02.857Z,11.63
2022-10-02T13:33:51.452Z,13.07
2022-10-02T13:36:26.149Z,14.13
2022-10-02T13:39:12.431Z,8.80
2022-10-02T13:42:02.670Z,12.18
2022-10-02T13:44:38.248Z,10.80
2022-10-02T13:47:32.799Z,8.27
2022-10-02T13:50:17.624Z,11.35
2022-10-02T13:52:58.904Z,10.05
2022-10-02T13:55:29.085Z,12.00
2022-10-02T13:58:20.646Z,12.88
2022-10-02T14:01:14.861Z,13.30
2022-10-02T14:03:58.790Z,10.98
2022-10-02T14:06:32.612Z,10.20
2022-10-02T14:09:18.164Z,12.43
2022-10-02T14:12:00.446Z,7.35
2022-10-02T14:14:56.273Z,13.18
2022-10-02T14:17:34.541Z,8.38
2022-10-02T14:20:19.923Z,13.55
2022-10-02T14:23:03.615Z,14.73
2022-10-02T14:25:46.605Z,13.07
2022-10-02T14:28:40.708Z,10.90
2022-10-02T14:31:36.270Z,19.77
2022-10-02T14:34:45.461Z,8.70
2022-10-02T14:37:59.018Z,10.45
2022-10-02T14:40:32.238Z,18.92
2022-10-02T14:43:19.621Z,18.27
2022-10-02T14:46:16.800Z,11.13
2022-10-02T14:49:09.483Z,13.10
2022-10-02T14:52:02.197Z,12.98
2022-10-02T14:54:49.899Z,11.43
2022-10-02T14:57:29.849Z,13.95
2022-10-02T15:00:08.464Z,11.88
2022-10-02T15:03:07.684Z,12.48
2022-10-02T15:05:48.496Z,12.07
2022-10-02T15:08:21.196Z,11.55
2022-10-02T15:10:50.114Z,15.20
2022-10-02T15:13:28.518Z,12.77
2022-10-02T15:16:20.444Z,9.60
2022-10-02T15:18:56.144Z,11.15
2022-10-02T15:21:30.495Z,11.95
2022-10-02T15:23:59.884Z,6.50
2022-10-02T15:26:47.506Z,15.50
2022-10-02T15:29:24.757Z,11.05
2022-10-02T15:32:19.291Z,14.38
2022-10-02T15:34:53.113Z,13.35
2022-10-02T15:37:28.669Z,12.05
2022-10-02T15:40:19.248Z,13.23
2022-10-02T15:42:55.123Z,15.45
2022-10-02T15:45:50.853Z,13.38
2022-10-02T15:48:33.689Z,10.52
2022-10-02T15:51:11.411Z,10.98
2022-10-02T15:53:55.830Z,9.13
2022-10-02T15:56:40.579Z,8.77
2022-10-02T15:59:27.473Z,15.85
2022-10-02T16:02:10.168Z,12.07
2022-10-02T16:04:54.652Z,16.23
2022-10-02T16:07:50.779Z,15.60
2022-10-02T16:10:25.459Z,12.68
2022-10-02T16:13:13.795Z,10.93
2022-10-02T16:15:52.017Z,15.23
2022-10-02T16:18:46.282Z,12.90
2022-10-02T16:21:32.485Z,6.38
2022-10-02T16:24:16.668Z,8.88
2022-10-02T16:27:19.203Z,7.55
2022-10-02T16:30:05.267Z,10.35
2022-10-02T16:32:43.951Z,12.60
2022-10-02T16:35:20.945Z,12.80
2022-10-02T16:37:59.832Z,6.95
2022-10-02T16:40:34.494Z,11.35
2022-10-02T16:43:47.231Z,7.97
2022-10-02T16:46:21.204Z,10.43
2022-10-02T16:48:56.470Z,12.60
2022-10-02T16:51:45.626Z,8.95
2022-10-02T16:54:23.433Z,10.98
2022-10-02T16:56:55.369Z,14.32
2022-10-02T16:59:27.710Z,9.02
2022-10-02T17:02:17.650Z,13.50
2022-10-02T17:05:00.146Z,11.02
2022-10-02T17:07:34.807Z,27.02
2022-10-02T17:10:18.965Z,12.45
2022-10-02T17:12:52.683Z,8.20
2022-10-02T17:15:26.455Z,16.13
2022-10-02T17:18:23.399Z,11.23
2022-10-02T17:20:54.965Z,8.98
2022-10-02T17:23:29.235Z,10.77
2022-10-02T17:26:04.798Z,13.73
2022-10-02T17:28:42.533Z,13.00
2022-10-02T17:31:25.335Z,15.65
2022-10-02T17:33:57.848Z,8.65
2022-10-02T17:36:35.717Z,7.00
2022-10-02T17:39:24.445Z,12.43
2022-10-02T17:41:57.099Z,10.65
2022-10-02T17:44:35.915Z,11.23
2022-10-02T17:47:29.035Z,11.57
2022-10-02T17:50:15.824Z,12.02
2022-10-02T17:53:06.166Z,14.93
2022-10-02T17:56:18.102Z,9.55
2022-10-02T17:58:56.922Z,12.35
2022-10-02T18:01:31.325Z,12.68
2022-10-02T18:04:10.214Z,11.25
2022-10-02T18:06:48.968Z,13.38
2022-10-02T18:09:39.794Z,11.23
2022-10-02T18:12:26.123Z,12.85
2022-10-02T18:15:11.657Z,18.33
2022-10-02T18:17:48.684Z,15.88
2022-10-02T18:20:33.063Z,13.50
2022-10-02T18:23:16.368Z,11.60
2022-10-02T18:26:15.466Z,13.57
2022-10-02T18:29:03.321Z,14.98
2022-10-02T18:31:55.751Z,15.93
2022-10-02T18:34:43.757Z,9.80
2022-10-02T18:37:29.150Z,13.80
2022-10-02T18:40:16.735Z,6.68
2022-10-02T18:43:02.232Z,16.35
2022-10-02T18:45:43.757Z,10.80
2022-10-02T18:48:39.143Z,8.63
2022-10-02T18:51:20.663Z,14.07
2022-10-02T18:54:02.031Z,11.05
2022-10-02T18:56:51.689Z,11.05
2022-10-02T18:59:30.037Z,14.18
2022-10-02T19:02:08.616Z,10.82
2022-10-02T19:04:57.932Z,11.05
2022-10-02T19:07:30.286Z,12.43
2022-10-02T19:10:26.224Z,14.40
2022-10-02T19:12:58.142Z,11.07
2022-10-02T19:15:28.289Z,15.45
2022-10-02T19:18:01.436Z,8.27
2022-10-02T19:20:44.981Z,11.23
2022-10-02T19:23:20.491Z,16.10
2022-10-02T19:25:50.086Z,11.05
2022-10-02T19:28:25.366Z,16.70
2022-10-02T19:30:57.286Z,13.40
2022-10-02T19:33:34.194Z,15.63
2022-10-02T19:36:05.778Z,12.38
2022-10-02T19:38:35.458Z,9.73
2022-10-02T19:41:09.853Z,13.82
2022-10-02T19:43:49.092Z,13.00
2022-10-02T19:46:19.817Z,13.48
2022-10-02T19:48:55.078Z,12.77
2022-10-02T19:51:22.911Z,16.75
2022-10-02T19:53:56.516Z,9.48
2022-10-02T19:56:31.911Z,11.63
2022-10-02T19:59:07.916Z,13.25
2022-10-02T20:01:43.072Z,18.63
2022-10-02T20:04:18.250Z,9.55
2022-10-02T20:06:52.866Z,15.65
2022-10-02T20:09:25.974Z,10.00
2022-10-02T20:11:58.766Z,11.52
2022-10-02T20:14:31.570Z,13.07
2022-10-02T20:17:10.404Z,7.93
2022-10-02T20:19:43.485Z,11.35
2022-10-02T20:22:23.987Z,11.55
2022-10-02T20:24:56.609Z,12.90
2022-10-02T20:27:34.727Z,8.80
2022-10-02T20:30:11.966Z,13.00
2022-10-02T20:32:46.191Z,12.82
2022-10-02T20:35:19.942Z,16.17
2022-10-02T20:37:50.443Z,10.90
2022-10-02T20:40:22.625Z,9.48
2022-10-02T20:42:57.708Z,11.80
2022-10-02T20:45:33.991Z,12.30
2022-10-02T20:49:06.844Z,14.18
2022-10-02T20:51:54.723Z,14.82
2022-10-02T20:54:35.514Z,11.35
2022-10-02T20:57:49.669Z,13.75
2022-10-02T21:00:21.464Z,16.42
2022-10-02T21:03:46.211Z,9.90
2022-10-02T21:06:39.510Z,8.80
2022-10-02T21:09:46.850Z,10.48
2022-10-02T21:12:54.541Z,11.23
2022-10-02T21:15:52.977Z,15.88
2022-10-02T21:18:47.848Z,12.15
2022-10-02T21:21:35.974Z,11.45
2022-10-02T21:24:34.025Z,11.23
2022-10-02T21:27:27.662Z,10.35
2022-10-02T21:30:15.434Z,11.82
2022-10-02T21:33:05.076Z,14.30
2022-10-02T21:35:42.071Z,11.68
2022-10-02T21:38:27.996Z,14.07
2022-10-02T21:41:26.192Z,11.60
2022-10-02T21:44:33.506Z,11.25
2022-10-02T21:47:30.391Z,10.88
2022-10-02T21:50:31.476Z,11.25
2022-10-02T21:53:30.867Z,12.98
2022-10-02T21:56:23.130Z,11.75
2022-10-02T21:59:11.074Z,9.68
2022-10-02T22:02:28.463Z,14.45
2022-10-02T22:05:23.258Z,13.05
2022-10-02T22:07:56.269Z,15.10
2022-10-02T22:10:31.004Z,11.52
2022-10-02T22:13:15.250Z,10.90
2022-10-02T22:15:49.735Z,8.73
2022-10-02T22:18:26.850Z,18.05
2022-10-02T22:21:10.209Z,10.05
2022-10-02T22:24:16.872Z,17.00
2022-10-02T22:27:09.701Z,14.00
2022-10-02T22:29:46.162Z,18.95
2022-10-02T22:32:50.716Z,11.25
2022-10-02T22:35:28.547Z,12.00
2022-10-02T22:38:09.819Z,10.48
2022-10-02T22:40:47.021Z,16.05
2022-10-02T22:43:28.757Z,13.50
2022-10-02T22:46:01.063Z,9.60
2022-10-02T22:48:37.155Z,12.85
2022-10-02T22:51:15.988Z,10.57
2022-10-02T22:53:50.755Z,13.63
2022-10-02T22:56:26.762Z,15.32
2022-10-02T22:59:02.936Z,13.18
2022-10-02T23:01:42.073Z,12.45
2022-10-02T23:04:20.423Z,11.68
2022-10-02T23:06:53.317Z,14.27
2022-10-02T23:09:25.897Z,11.85
2022-10-02T23:11:59.829Z,12.77
2022-10-02T23:14:39.144Z,11.70
2022-10-02T23:17:13.323Z,11.82
2022-10-02T23:19:44.789Z,10.77
2022-10-02T23:22:23.974Z,17.13
2022-10-02T23:25:00.257Z,15.77
2022-10-02T23:27:36.274Z,12.63
2022-10-02T23:30:08.926Z,12.55
2022-10-02T23:32:41.844Z,15.40
2022-10-02T23:35:14.958Z,15.70
2022-10-02T23:37:51.544Z,16.65
2022-10-02T23:40:46.583Z,13.48
2022-10-02T23:43:20.200Z,19.42
2022-10-02T23:45:57.816Z,13.70
2022-10-02T23:48:26.023Z,17.90
2022-10-02T23:51:01.864Z,16.67
2022-10-02T23:53:47.154Z,11.75
2022-10-02T23:56:36.406Z,17.65
2022-10-02T23:59:19.949Z,17.50
